Time;durP1;ratioP1;P1;durP2;ratioP2;P2;SDS_P1;SDS_P2;PMS_P1;PMS_P2;Temp;Humidity;BMP_temperature;BMP_pressure;BME280_temperature;BME280_humidity;BME280_pressure;Samples;Min_cycle;Max_cycle;Signal;HPM_P1;HPM_P2
2023/03/13 00:00:34;;;;;;;10.35;5.93;;;13.00;75.00;;;;;;6219520;23;20027;-76
2023/03/13 00:03:00;;;;;;;9.27;5.65;;;13.00;75.00;;;;;;6246186;23;20427;-75
2023/03/13 00:05:25;;;;;;;10.02;4.80;;;13.00;75.10;;;;;;6246040;23;20007;-75
2023/03/13 00:07:51;;;;;;;10.02;5.80;;;13.00;75.70;;;;;;6244896;23;20071;-75
2023/03/13 00:10:17;;;;;;;7.47;5.38;;;13.00;75.30;;;;;;6219321;23;20011;-75
2023/03/13 00:12:43;;;;;;;8.52;5.43;;;12.90;75.30;;;;;;6246068;23;20000;-75
2023/03/13 00:15:09;;;;;;;8.05;5.32;;;12.90;75.40;;;;;;6245917;23;20747;-75
2023/03/13 00:17:34;;;;;;;7.47;5.22;;;12.90;75.30;;;;;;6219369;23;20415;-75
2023/03/13 00:20:00;;;;;;;6.90;4.30;;;12.90;75.30;;;;;;6245522;23;20004;-75
2023/03/13 00:22:26;;;;;;;8.85;5.35;;;12.90;75.40;;;;;;6245788;23;20016;-75
2023/03/13 00:24:52;;;;;;;8.15;5.28;;;12.90;75.50;;;;;;6246129;23;20366;-75
2023/03/13 00:27:17;;;;;;;8.48;5.18;;;12.90;75.50;;;;;;6245621;23;20014;-75
2023/03/13 00:29:43;;;;;;;6.95;4.95;;;12.90;75.50;;;;;;6218551;23;20533;-75
2023/03/13 00:32:09;;;;;;;8.65;5.38;;;12.90;76.20;;;;;;6246083;23;20498;-75
2023/03/13 00:34:34;;;;;;;7.28;5.18;;;12.90;75.70;;;;;;6245360;23;20005;-75
2023/03/13 00:37:00;;;;;;;10.05;5.68;;;12.90;75.60;;;;;;6245757;23;20000;-75
2023/03/13 00:39:25;;;;;;;10.25;6.00;;;12.90;75.40;;;;;;6245568;23;20480;-75
2023/03/13 00:41:51;;;;;;;6.75;4.72;;;12.90;75.40;;;;;;6245297;23;20007;-74
2023/03/13 00:44:17;;;;;;;6.45;4.95;;;12.90;75.60;;;;;;6245757;23;20006;-74
2023/03/13 00:46:42;;;;;;;8.05;4.85;;;12.90;75.80;;;;;;6245840;23;19996;-74
2023/03/13 00:49:08;;;;;;;10.18;5.05;;;12.80;75.90;;;;;;6244683;23;20472;-74
2023/03/13 00:51:34;;;;;;;9.52;5.63;;;12.80;76.00;;;;;;6245916;23;20449;-74
2023/03/13 00:54:00;;;;;;;6.82;5.22;;;12.80;76.20;;;;;;6245300;23;20000;-74
2023/03/13 00:56:26;;;;;;;7.63;4.80;;;12.80;76.30;;;;;;6245364;23;20000;-74
2023/03/13 00:58:52;;;;;;;7.75;4.53;;;12.80;76.10;;;;;;6244524;23;20373;-74
2023/03/13 01:01:30;;;;;;;8.70;5.45;;;12.80;76.20;;;;;;6245769;23;20417;-74
2023/03/13 01:03:59;;;;;;;9.45;4.85;;;12.70;76.30;;;;;;6245314;23;19996;-74
2023/03/13 01:06:27;;;;;;;6.40;3.92;;;12.70;76.40;;;;;;6245814;23;19996;-74
2023/03/13 01:08:53;;;;;;;7.25;4.15;;;12.70;76.70;;;;;;6245041;23;20078;-74
2023/03/13 01:11:22;;;;;;;7.85;4.35;;;12.70;76.90;;;;;;6245959;23;20362;-75
2023/03/13 01:13:49;;;;;;;6.60;4.28;;;12.80;77.10;;;;;;6245562;23;20008;-75
2023/03/13 01:16:17;;;;;;;7.15;4.53;;;12.80;77.20;;;;;;6244673;23;20004;-75
2023/03/13 01:18:46;;;;;;;7.63;4.28;;;12.80;77.30;;;;;;6244567;23;20023;-75
2023/03/13 01:21:13;;;;;;;5.78;4.47;;;12.70;77.40;;;;;;6219116;23;20012;-75
2023/03/13 01:23:38;;;;;;;6.50;4.53;;;12.70;77.60;;;;;;6244560;23;20072;-75
2023/03/13 01:26:06;;;;;;;5.97;3.97;;;12.70;77.80;;;;;;6245721;23;20027;-75
2023/03/13 01:28:32;;;;;;;6.72;4.68;;;12.70;78.00;;;;;;6245033;23;20098;-75
2023/03/13 01:30:58;;;;;;;9.23;5.28;;;12.70;78.10;;;;;;6245171;23;20544;-75
2023/03/13 01:33:24;;;;;;;7.97;5.15;;;12.70;78.40;;;;;;6244639;23;20399;-74
2023/03/13 01:35:50;;;;;;;8.60;5.35;;;12.70;78.30;;;;;;6245102;23;20087;-75
2023/03/13 01:38:15;;;;;;;8.82;6.03;;;12.70;78.30;;;;;;6244658;23;20004;-75
2023/03/13 01:40:44;;;;;;;12.75;7.88;;;12.70;78.40;;;;;;6245643;23;20422;-75
2023/03/13 01:43:19;;;;;;;8.98;6.07;;;12.60;78.50;;;;;;6244783;23;20027;-75
2023/03/13 01:46:00;;;;;;;12.50;7.53;;;12.50;78.50;;;;;;6244898;23;20049;-75
2023/03/13 01:48:40;;;;;;;8.48;7.05;;;12.50;78.50;;;;;;6244676;23;20000;-75
2023/03/13 01:51:10;;;;;;;13.73;7.55;;;12.40;78.30;;;;;;6245331;23;20004;-75
2023/03/13 01:53:40;;;;;;;11.43;7.15;;;12.40;78.10;;;;;;6217669;23;20004;-75
2023/03/13 01:56:10;;;;;;;10.18;6.68;;;12.40;78.30;;;;;;6245144;23;20000;-75
2023/03/13 01:58:37;;;;;;;9.38;7.00;;;12.30;78.50;;;;;;6244457;23;20004;-75
2023/03/13 02:01:04;;;;;;;10.55;7.18;;;12.20;78.50;;;;;;6244860;23;20489;-75
2023/03/13 02:03:30;;;;;;;9.05;6.65;;;12.20;78.50;;;;;;6244170;23;20000;-75
2023/03/13 02:05:58;;;;;;;10.68;6.45;;;12.30;78.50;;;;;;6244431;23;20035;-74
2023/03/13 02:08:55;;;;;;;9.85;6.60;;;12.30;78.80;;;;;;6244706;23;20326;-75
2023/03/13 02:11:34;;;;;;;9.82;6.80;;;12.30;78.90;;;;;;6242785;23;20035;-76
2023/03/13 02:14:02;;;;;;;10.23;6.35;;;12.30;79.00;;;;;;6244767;23;20054;-76
2023/03/13 02:16:28;;;;;;;8.02;6.32;;;12.30;78.90;;;;;;6244378;23;20008;-75
2023/03/13 02:18:54;;;;;;;10.20;7.20;;;12.30;79.00;;;;;;6244651;23;20334;-76
2023/03/13 02:21:35;;;;;;;10.10;7.10;;;12.30;79.00;;;;;;6244965;23;20012;-76
2023/03/13 02:24:18;;;;;;;13.27;7.65;;;12.30;79.20;;;;;;6244896;23;20001;-76
2023/03/13 02:26:44;;;;;;;11.88;7.00;;;12.30;79.10;;;;;;6244683;23;20000;-76
2023/03/13 02:29:17;;;;;;;10.57;6.30;;;12.30;79.00;;;;;;6244233;23;20500;-76
2023/03/13 02:31:44;;;;;;;11.57;7.03;;;12.30;78.90;;;;;;6245103;23;20007;-76
2023/03/13 02:34:14;;;;;;;10.02;7.15;;;12.30;78.70;;;;;;6244927;23;20075;-75
2023/03/13 02:36:40;;;;;;;12.60;7.77;;;12.30;78.70;;;;;;6245132;23;20001;-75
2023/03/13 02:39:08;;;;;;;11.30;6.90;;;12.30;78.60;;;;;;6244160;23;20314;-74
2023/03/13 02:41:34;;;;;;;12.38;7.15;;;12.30;78.10;;;;;;6244817;23;20011;-75
2023/03/13 02:44:00;;;;;;;12.65;9.25;;;12.20;77.90;;;;;;6244786;23;20005;-75
2023/03/13 02:46:26;;;;;;;17.85;12.10;;;12.20;77.70;;;;;;6217832;23;20088;-75
2023/03/13 02:48:54;;;;;;;18.00;12.40;;;12.20;77.30;;;;;;6245730;23;19997;-75
2023/03/13 02:51:40;;;;;;;20.15;13.15;;;12.20;76.80;;;;;;6219995;23;20433;-75
2023/03/13 02:54:13;;;;;;;18.60;11.73;;;12.10;76.40;;;;;;6246751;23;20431;-74
2023/03/13 02:56:41;;;;;;;17.20;11.90;;;12.10;76.00;;;;;;6246587;23;20004;-75
2023/03/13 02:59:07;;;;;;;16.17;10.57;;;12.00;75.80;;;;;;6245675;23;20000;-75
2023/03/13 03:01:33;;;;;;;13.05;9.30;;;12.00;75.60;;;;;;6246800;23;20010;-75
2023/03/13 03:03:58;;;;;;;18.83;11.95;;;11.80;75.40;;;;;;6246707;23;19996;-76
2023/03/13 03:06:24;;;;;;;15.35;11.25;;;11.20;76.00;;;;;;6246352;23;20418;-76
2023/03/13 03:08:50;;;;;;;12.23;9.60;;;10.60;78.30;;;;;;6247254;23;20490;-76
2023/03/13 03:11:15;;;;;;;14.60;9.75;;;10.70;78.30;;;;;;6248589;23;20027;-76
2023/03/13 03:13:41;;;;;;;15.02;9.43;;;10.80;77.80;;;;;;6246397;23;20004;-77
2023/03/13 03:16:09;;;;;;;17.83;10.10;;;11.00;77.50;;;;;;6246060;23;20008;-76
2023/03/13 03:18:36;;;;;;;12.18;9.90;;;11.10;77.00;;;;;;6246574;23;20319;-77
2023/03/13 03:21:05;;;;;;;14.38;9.35;;;11.20;76.70;;;;;;6246619;23;20066;-76
2023/03/13 03:23:34;;;;;;;12.13;8.88;;;11.30;76.40;;;;;;6246692;23;20007;-76
2023/03/13 03:26:00;;;;;;;15.45;9.80;;;11.30;76.00;;;;;;6247043;23;20000;-77
2023/03/13 03:28:26;;;;;;;16.88;12.20;;;11.30;75.90;;;;;;6220523;23;20008;-77
2023/03/13 03:30:53;;;;;;;19.90;12.38;;;11.20;75.90;;;;;;6247198;23;20340;-76
2023/03/13 03:33:19;;;;;;;15.48;10.90;;;10.80;76.70;;;;;;6246173;23;20383;-76
2023/03/13 03:35:45;;;;;;;15.93;9.75;;;10.70;77.20;;;;;;6246779;23;20007;-76
2023/03/13 03:38:11;;;;;;;14.20;9.52;;;10.80;76.90;;;;;;6246489;23;20004;-76
2023/03/13 03:40:36;;;;;;;13.93;9.23;;;10.80;77.00;;;;;;6219787;23;20427;-76
2023/03/13 03:43:02;;;;;;;16.95;9.93;;;10.90;77.10;;;;;;6219524;23;20327;-75
2023/03/13 03:45:28;;;;;;;12.30;8.95;;;10.90;77.30;;;;;;6246008;23;20004;-75
2023/03/13 03:47:53;;;;;;;15.18;9.68;;;10.90;77.20;;;;;;6246422;23;20000;-76
2023/03/13 03:50:19;;;;;;;12.75;8.73;;;11.00;77.40;;;;;;6246591;23;20003;-75
2023/03/13 03:52:45;;;;;;;14.00;9.73;;;11.00;77.40;;;;;;6246504;23;20061;-76
2023/03/13 03:55:10;;;;;;;13.18;8.50;;;11.10;77.40;;;;;;6245718;23;20012;-75
2023/03/13 03:57:36;;;;;;;13.30;9.07;;;11.10;77.30;;;;;;6245350;23;20004;-76
2023/03/13 04:00:02;;;;;;;11.90;8.95;;;11.20;77.50;;;;;;6245860;23;20000;-76
2023/03/13 04:02:28;;;;;;;11.25;8.52;;;11.10;77.40;;;;;;6246577;23;20061;-75
2023/03/13 04:04:53;;;;;;;14.57;9.15;;;11.10;77.80;;;;;;6246744;23;20075;-75
2023/03/13 04:07:20;;;;;;;13.30;9.10;;;11.00;78.10;;;;;;6218843;23;20099;-75
2023/03/13 04:09:46;;;;;;;16.83;9.80;;;10.90;78.00;;;;;;6246352;23;20004;-75
2023/03/13 04:12:11;;;;;;;14.73;9.68;;;10.90;77.90;;;;;;6246176;23;20331;-75
2023/03/13 04:14:37;;;;;;;13.15;9.25;;;10.90;78.00;;;;;;6246021;23;20004;-75
2023/03/13 04:17:03;;;;;;;14.20;9.80;;;10.90;78.20;;;;;;6246065;23;20015;-75
2023/03/13 04:19:29;;;;;;;14.43;8.82;;;10.90;78.50;;;;;;6245368;23;20303;-75
2023/03/13 04:21:55;;;;;;;11.70;7.93;;;10.90;78.40;;;;;;6245781;23;20106;-75
2023/03/13 04:24:20;;;;;;;14.50;9.98;;;10.90;78.50;;;;;;6246566;23;20004;-75
2023/03/13 04:26:46;;;;;;;11.93;8.98;;;10.90;78.90;;;;;;6246158;23;20004;-75
2023/03/13 04:29:11;;;;;;;11.82;7.97;;;10.90;78.80;;;;;;6245809;23;20000;-75
2023/03/13 04:31:37;;;;;;;14.75;9.30;;;10.90;78.80;;;;;;6219496;23;20004;-75
2023/03/13 04:34:03;;;;;;;13.55;8.10;;;11.00;79.00;;;;;;6245985;23;20406;-75
2023/03/13 04:36:28;;;;;;;13.55;8.32;;;11.00;79.10;;;;;;6245691;23;20322;-76
2023/03/13 04:38:54;;;;;;;13.20;9.27;;;11.00;79.10;;;;;;6245925;23;20000;-76
2023/03/13 04:41:19;;;;;;;12.18;8.18;;;11.10;79.10;;;;;;6245435;23;20038;-75
2023/03/13 04:43:45;;;;;;;9.93;7.40;;;11.10;79.00;;;;;;6245463;23;20101;-75
2023/03/13 04:46:11;;;;;;;14.25;9.07;;;11.20;79.00;;;;;;6245864;23;20000;-76
2023/03/13 04:48:36;;;;;;;13.73;9.10;;;11.00;79.20;;;;;;6245751;23;20027;-76
2023/03/13 04:51:02;;;;;;;15.15;9.75;;;11.00;79.30;;;;;;6245960;23;20011;-76
2023/03/13 04:53:28;;;;;;;10.75;8.70;;;10.90;79.90;;;;;;6245509;23;20007;-76
2023/03/13 04:55:53;;;;;;;12.23;8.82;;;10.80;79.30;;;;;;6245509;23;19996;-76
2023/03/13 04:58:19;;;;;;;13.35;9.15;;;10.80;79.50;;;;;;6245781;23;20000;-76
2023/03/13 05:00:45;;;;;;;13.40;9.35;;;10.70;80.20;;;;;;6245672;23;20067;-76
2023/03/13 05:03:10;;;;;;;12.73;8.90;;;10.40;81.00;;;;;;6245501;23;20136;-76
2023/03/13 05:05:36;;;;;;;11.40;7.47;;;10.30;81.60;;;;;;6245471;23;20001;-76
2023/03/13 05:08:02;;;;;;;13.18;8.80;;;10.30;81.00;;;;;;6218738;23;20000;-75
2023/03/13 05:10:28;;;;;;;12.27;8.85;;;10.40;80.90;;;;;;6246182;23;20001;-75
2023/03/13 05:12:53;;;;;;;12.82;9.07;;;10.50;81.10;;;;;;6245177;23;20000;-75
2023/03/13 05:15:19;;;;;;;12.40;7.70;;;10.60;80.90;;;;;;6244740;23;20353;-75
2023/03/13 05:17:44;;;;;;;10.50;8.20;;;10.70;80.60;;;;;;6218469;23;20011;-75
2023/03/13 05:20:10;;;;;;;14.48;9.50;;;10.70;80.60;;;;;;6245474;23;20008;-75
2023/03/13 05:22:37;;;;;;;12.48;9.13;;;10.70;80.80;;;;;;6245448;23;20088;-75
2023/03/13 05:25:04;;;;;;;9.52;7.22;;;10.50;82.40;;;;;;6245623;23;20371;-75
2023/03/13 05:27:29;;;;;;;14.40;9.05;;;10.40;81.80;;;;;;6218445;23;20004;-75
2023/03/13 05:29:55;;;;;;;15.75;8.00;;;10.50;81.50;;;;;;6218094;23;20000;-74
2023/03/13 05:32:21;;;;;;;12.27;8.60;;;10.50;81.70;;;;;;6245434;23;20007;-75
2023/03/13 05:34:46;;;;;;;11.15;8.10;;;10.60;81.70;;;;;;6218463;23;20062;-76
2023/03/13 05:37:12;;;;;;;10.48;7.72;;;10.70;81.70;;;;;;6245183;23;20331;-76
2023/03/13 05:39:38;;;;;;;13.57;8.27;;;10.80;81.60;;;;;;6245056;23;20418;-76
2023/03/13 05:42:03;;;;;;;9.38;7.65;;;10.80;81.50;;;;;;6218796;23;20300;-75
2023/03/13 05:44:29;;;;;;;13.02;8.35;;;10.90;81.50;;;;;;6245321;23;20434;-75
2023/03/13 05:46:55;;;;;;;11.95;8.63;;;11.00;81.50;;;;;;6245371;23;20024;-75
2023/03/13 05:49:21;;;;;;;9.38;7.50;;;11.00;81.50;;;;;;6245495;23;20042;-75
2023/03/13 05:51:46;;;;;;;9.70;7.65;;;11.10;81.40;;;;;;6245333;23;20004;-79
2023/03/13 05:54:12;;;;;;;11.77;8.13;;;11.10;81.40;;;;;;6245494;23;20032;-78
2023/03/13 05:56:37;;;;;;;11.77;8.10;;;11.10;81.40;;;;;;6245268;23;20008;-76
2023/03/13 05:59:03;;;;;;;10.63;7.90;;;11.10;81.50;;;;;;6218478;23;20008;-77
2023/03/13 06:01:29;;;;;;;10.40;7.30;;;11.20;81.60;;;;;;6245142;23;20004;-77
2023/03/13 06:03:55;;;;;;;9.68;7.75;;;11.20;81.50;;;;;;6244728;23;20068;-77
2023/03/13 06:06:20;;;;;;;11.60;8.20;;;11.20;81.80;;;;;;6244531;23;20322;-77
2023/03/13 06:08:46;;;;;;;9.80;8.35;;;11.20;81.90;;;;;;6245118;23;20427;-81
2023/03/13 06:11:12;;;;;;;12.13;8.77;;;11.30;83.10;;;;;;6245598;23;20031;-81
2023/03/13 06:13:37;;;;;;;10.90;8.32;;;11.30;82.60;;;;;;6244670;23;20000;-84
2023/03/13 06:16:03;;;;;;;11.45;8.90;;;11.20;82.80;;;;;;6244999;23;20372;-84
2023/03/13 06:18:30;;;;;;;10.73;8.63;;;11.30;82.90;;;;;;6244853;23;20004;-79
2023/03/13 06:21:00;;;;;;;12.32;8.82;;;11.40;83.00;;;;;;6244718;23;20005;-84
2023/03/13 06:23:26;;;;;;;15.55;8.65;;;11.40;83.20;;;;;;6245607;23;20006;-85
2023/03/13 06:25:52;;;;;;;11.38;7.95;;;11.40;83.30;;;;;;6248031;23;20071;-86
2023/03/13 06:28:20;;;;;;;14.73;9.15;;;11.40;83.20;;;;;;6245981;23;20441;-84
2023/03/13 06:30:48;;;;;;;10.40;8.30;;;11.50;83.10;;;;;;6247209;23;20006;-83
2023/03/13 06:33:13;;;;;;;10.65;7.85;;;11.50;83.10;;;;;;6246343;23;20323;-83
2023/03/13 06:35:40;;;;;;;13.13;8.07;;;11.50;83.00;;;;;;6245883;23;20003;-77
2023/03/13 06:38:06;;;;;;;9.10;7.30;;;;;;;;;;6218349;23;20377;-77
2023/03/13 06:40:35;;;;;;;8.73;7.60;;;11.60;82.60;;;;;;6245896;23;20003;-82
2023/03/13 06:43:01;;;;;;;12.50;8.18;;;11.60;83.10;;;;;;6219666;23;20039;-83
2023/03/13 06:45:27;;;;;;;10.98;7.47;;;11.70;82.90;;;;;;6246652;23;19996;-76
2023/03/13 06:47:52;;;;;;;10.82;8.20;;;11.70;82.70;;;;;;6245587;23;20003;-81
2023/03/13 06:50:25;;;;;;;10.98;7.15;;;11.70;82.50;;;;;;6246950;23;20000;-77
2023/03/13 06:52:51;;;;;;;10.45;7.93;;;11.70;82.60;;;;;;6219530;23;20338;-83
2023/03/13 06:55:25;;;;;;;9.60;7.40;;;11.70;82.30;;;;;;6245937;23;20028;-76
2023/03/13 06:57:51;;;;;;;10.35;7.47;;;11.70;81.90;;;;;;6246745;23;20004;-77
2023/03/13 07:00:18;;;;;;;8.95;7.05;;;11.70;82.00;;;;;;6246455;23;20307;-76
2023/03/13 07:02:44;;;;;;;9.02;6.80;;;11.70;81.90;;;;;;6245983;23;20011;-78
2023/03/13 07:05:10;;;;;;;9.02;6.68;;;11.80;81.80;;;;;;6245896;23;20000;-76
2023/03/13 07:07:36;;;;;;;8.07;6.72;;;11.90;81.60;;;;;;6245738;23;20050;-76
2023/03/13 07:10:01;;;;;;;8.43;6.90;;;11.90;81.40;;;;;;6245636;23;20000;-77
2023/03/13 07:12:27;;;;;;;8.93;6.80;;;12.00;81.20;;;;;;6243776;23;20007;-77
2023/03/13 07:14:53;;;;;;;8.27;6.72;;;11.60;80.80;;;;;;6244751;23;20004;-76
2023/03/13 07:17:18;;;;;;;7.90;6.50;;;12.00;80.90;;;;;;6244738;23;20089;-77
2023/03/13 07:19:44;;;;;;;9.18;6.40;;;12.00;80.80;;;;;;6244238;23;20007;-77
2023/03/13 07:22:10;;;;;;;8.02;6.55;;;12.10;80.80;;;;;;6245432;23;20004;-77
2023/03/13 07:24:35;;;;;;;8.48;7.28;;;12.00;80.70;;;;;;6245789;23;20050;-77
2023/03/13 07:27:01;;;;;;;7.93;6.05;;;12.10;80.70;;;;;;6245727;23;20003;-77
2023/03/13 07:29:27;;;;;;;7.03;5.88;;;12.10;80.60;;;;;;6245222;23;20003;-77
2023/03/13 07:31:53;;;;;;;7.43;5.97;;;12.10;80.40;;;;;;6247033;23;20011;-77
2023/03/13 07:34:18;;;;;;;12.50;6.85;;;12.20;80.40;;;;;;6246871;23;20058;-77
2023/03/13 07:36:44;;;;;;;7.13;6.03;;;12.20;80.60;;;;;;6246161;23;20308;-85
2023/03/13 07:39:10;;;;;;;9.40;6.15;;;12.20;80.50;;;;;;6246968;23;20497;-84
2023/03/13 07:41:35;;;;;;;7.18;5.88;;;12.20;80.30;;;;;;6246760;23;20327;-84
2023/03/13 07:44:01;;;;;;;7.70;5.85;;;12.30;80.40;;;;;;6246773;23;20004;-85
2023/03/13 07:46:26;;;;;;;8.32;5.85;;;12.40;80.60;;;;;;6246607;23;20330;-84
2023/03/13 07:48:54;;;;;;;8.25;5.90;;;12.40;80.60;;;;;;6246075;23;20371;-85
2023/03/13 07:51:22;;;;;;;9.85;6.63;;;12.50;80.60;;;;;;6245878;23;20032;-85
2023/03/13 07:53:48;;;;;;;8.25;6.50;;;12.60;80.60;;;;;;6246583;23;20000;-85
2023/03/13 07:56:16;;;;;;;6.45;5.18;;;12.60;80.50;;;;;;6219948;23;20363;-85
2023/03/13 07:58:43;;;;;;;8.23;5.80;;;12.60;80.50;;;;;;6247022;23;20007;-85
2023/03/13 08:01:16;;;;;;;9.35;5.15;;;12.60;80.70;;;;;;6246890;23;20311;-85
2023/03/13 08:03:44;;;;;;;6.45;4.50;;;12.70;80.70;;;;;;6246414;23;20004;-85
2023/03/13 08:06:12;;;;;;;5.88;4.63;;;12.70;80.70;;;;;;6246668;23;20000;-85
2023/03/13 08:08:39;;;;;;;7.45;5.38;;;12.80;80.70;;;;;;6245962;23;20020;-84
2023/03/13 08:11:16;;;;;;;6.90;5.05;;;12.90;80.80;;;;;;6246782;23;20083;-85
2023/03/13 08:13:42;;;;;;;9.65;4.75;;;13.00;80.80;;;;;;6247006;23;20006;-85
2023/03/13 08:16:15;;;;;;;6.75;4.63;;;13.10;80.70;;;;;;6246187;23;20004;-84
2023/03/13 08:18:46;;;;;;;5.68;4.38;;;13.20;80.00;;;;;;6246696;23;20353;-84
2023/03/13 08:21:14;;;;;;;10.50;4.35;;;13.20;79.80;;;;;;6219891;23;20012;-84
2023/03/13 08:23:40;;;;;;;4.85;4.28;;;13.20;79.60;;;;;;6246844;23;20007;-85
2023/03/13 08:26:10;;;;;;;6.05;3.65;;;13.20;79.40;;;;;;6246859;23;20118;-85
2023/03/13 08:28:36;;;;;;;;;;;13.20;79.30;;;;;;6246793;23;20000;-85
2023/03/13 08:31:22;;;;;;;6.40;4.35;;;13.30;79.50;;;;;;6246154;23;20336;-85
2023/03/13 08:33:48;;;;;;;6.45;3.35;;;13.40;79.60;;;;;;6245985;23;20444;-85
2023/03/13 08:36:18;;;;;;;5.85;3.58;;;13.40;79.50;;;;;;6246260;23;20028;-84
2023/03/13 08:38:45;;;;;;;8.38;3.63;;;13.50;79.20;;;;;;6245358;23;20008;-84
2023/03/13 08:41:20;;;;;;;5.68;3.53;;;13.60;79.30;;;;;;6218942;23;20311;-85
2023/03/13 08:43:46;;;;;;;6.70;3.80;;;13.70;79.00;;;;;;6246011;23;20000;-85
2023/03/13 08:46:13;;;;;;;6.95;3.22;;;13.90;78.80;;;;;;6246285;23;20462;-85
2023/03/13 08:48:39;;;;;;;5.60;3.83;;;14.00;78.10;;;;;;6246076;23;20010;-86
2023/03/13 08:51:10;;;;;;;4.88;3.05;;;13.90;77.30;;;;;;6245543;23;20354;-84
2023/03/13 08:53:37;;;;;;;5.05;3.05;;;14.00;78.90;;;;;;6246559;23;20007;-84
2023/03/13 08:56:03;;;;;;;4.50;3.10;;;14.20;78.60;;;;;;6245944;23;20067;-85
2023/03/13 08:58:30;;;;;;;4.45;2.85;;;14.30;78.30;;;;;;6246153;23;20027;-85
2023/03/13 09:01:02;;;;;;;4.18;2.63;;;14.50;77.80;;;;;;6218333;23;20000;-84
2023/03/13 09:03:27;;;;;;;4.88;2.83;;;14.70;76.90;;;;;;6245507;23;20062;-85
2023/03/13 09:05:55;;;;;;;5.05;2.35;;;14.70;75.20;;;;;;6244917;23;20004;-85
2023/03/13 09:08:21;;;;;;;4.10;2.42;;;14.80;75.80;;;;;;6245975;23;20000;-85
2023/03/13 09:10:46;;;;;;;3.10;2.17;;;14.90;75.90;;;;;;6245176;23;20288;-85
2023/03/13 09:13:12;;;;;;;4.50;2.33;;;15.00;74.90;;;;;;6238328;23;20008;-84
2023/03/13 09:15:38;;;;;;;3.55;2.50;;;15.20;74.50;;;;;;6240416;23;20446;-85
2023/03/13 09:18:03;;;;;;;3.65;2.42;;;15.30;74.00;;;;;;6244597;23;20071;-84
2023/03/13 09:20:29;;;;;;;4.32;2.45;;;15.50;73.50;;;;;;6217447;23;20051;-85
2023/03/13 09:22:55;;;;;;;5.57;2.55;;;15.70;73.40;;;;;;6243499;23;20061;-77
2023/03/13 09:25:20;;;;;;;3.45;2.35;;;15.90;72.80;;;;;;6242618;23;20074;-77
2023/03/13 09:27:46;;;;;;;3.28;2.13;;;16.00;72.00;;;;;;6245002;23;20004;-84
2023/03/13 09:30:12;;;;;;;4.53;2.10;;;16.10;70.30;;;;;;6220200;23;20437;-84
2023/03/13 09:32:37;;;;;;;4.00;2.17;;;16.20;69.80;;;;;;6246023;23;20004;-87
2023/03/13 09:35:04;;;;;;;3.22;1.90;;;16.20;69.80;;;;;;6245425;23;20007;-86
2023/03/13 09:37:29;;;;;;;3.10;2.38;;;16.40;69.50;;;;;;6246486;23;20000;-87
2023/03/13 09:39:57;;;;;;;4.47;2.17;;;16.50;67.00;;;;;;6246291;23;20011;-87
2023/03/13 09:42:58;;;;;;;4.78;2.17;;;16.60;68.10;;;;;;6245747;23;20001;-85
2023/03/13 09:45:33;;;;;;;3.15;2.15;;;16.70;66.60;;;;;;6245979;23;20059;-86
2023/03/13 09:48:11;;;;;;;5.72;2.20;;;16.70;67.20;;;;;;6216684;23;20004;-85
2023/03/13 09:50:47;;;;;;;5.60;2.33;;;16.80;65.90;;;;;;6245258;23;20441;-86
2023/03/13 09:53:18;;;;;;;2.65;1.92;;;16.80;65.90;;;;;;6245845;23;20035;-86
2023/03/13 09:55:45;;;;;;;4.75;1.95;;;17.00;66.80;;;;;;6244644;23;20010;-86
2023/03/13 09:58:21;;;;;;;3.03;2.05;;;17.20;66.50;;;;;;6245057;23;20008;-85
2023/03/13 10:00:52;;;;;;;3.75;2.25;;;17.40;66.40;;;;;;6245555;23;20329;-87
2023/03/13 10:03:51;;;;;;;4.18;2.08;;;17.60;65.90;;;;;;6246190;23;20004;-86
2023/03/13 10:06:21;;;;;;;6.97;2.20;;;17.60;65.00;;;;;;6244107;23;20028;-79
2023/03/13 10:08:47;;;;;;;4.20;2.00;;;17.70;65.10;;;;;;6245561;23;19996;-80
2023/03/13 10:11:27;;;;;;;4.95;3.13;;;17.80;64.30;;;;;;6245966;23;20012;-80
2023/03/13 10:14:03;;;;;;;5.07;2.47;;;17.90;64.30;;;;;;6244590;23;20054;-80
2023/03/13 10:16:34;;;;;;;3.30;2.33;;;18.00;63.80;;;;;;6243526;23;20122;-79
2023/03/13 10:19:10;;;;;;;3.67;2.15;;;18.20;63.30;;;;;;6216831;23;20791;-79
2023/03/13 10:21:36;;;;;;;3.55;1.98;;;18.30;62.40;;;;;;6244952;23;20088;-78
2023/03/13 10:24:16;;;;;;;7.03;2.58;;;18.50;62.10;;;;;;6244722;23;20022;-79
2023/03/13 10:26:42;;;;;;;5.10;1.95;;;18.60;63.80;;;;;;6245026;23;20326;-80
2023/03/13 10:29:23;;;;;;;3.35;1.85;;;18.80;63.00;;;;;;6244777;23;20000;-80
2023/03/13 10:31:57;;;;;;;3.28;1.85;;;18.90;61.60;;;;;;6244741;23;20067;-79
2023/03/13 10:34:26;;;;;;;6.30;1.77;;;18.90;60.60;;;;;;6218417;23;20004;-80
2023/03/13 10:36:58;;;;;;;2.65;2.10;;;18.90;60.10;;;;;;6245521;23;20000;-87
2023/03/13 10:39:26;;;;;;;3.53;2.40;;;18.90;60.00;;;;;;6215024;23;20012;-85
2023/03/13 10:42:10;;;;;;;2.80;2.35;;;18.90;60.10;;;;;;6242955;23;20008;-86
2023/03/13 10:44:36;;;;;;;4.18;2.33;;;19.00;60.30;;;;;;6243344;23;20023;-85
2023/03/13 10:47:03;;;;;;;5.50;2.85;;;19.10;60.30;;;;;;6241076;23;20007;-85
2023/03/13 10:49:31;;;;;;;4.35;2.30;;;19.10;60.40;;;;;;6242251;23;20004;-86
2023/03/13 10:52:01;;;;;;;4.50;2.35;;;19.30;60.40;;;;;;6242870;23;20004;-85
2023/03/13 10:54:36;;;;;;;3.40;2.20;;;19.30;59.90;;;;;;6243339;23;20027;-85
2023/03/13 10:57:24;;;;;;;8.07;2.40;;;19.40;60.30;;;;;;6242886;23;20008;-85
2023/03/13 10:59:51;;;;;;;3.72;2.33;;;19.50;60.20;;;;;;6242804;23;20019;-86
2023/03/13 11:02:29;;;;;;;1.95;1.60;;;19.70;60.20;;;;;;6242915;23;20000;-86
2023/03/13 11:04:55;;;;;;;5.57;2.35;;;19.80;60.40;;;;;;6242932;23;19996;-86
2023/03/13 11:07:35;;;;;;;3.53;2.40;;;20.00;60.30;;;;;;6242857;23;20000;-85
2023/03/13 11:10:09;;;;;;;3.55;2.05;;;20.10;59.30;;;;;;6242753;23;20438;-85
2023/03/13 11:12:35;;;;;;;2.83;2.00;;;20.10;59.00;;;;;;6244250;23;20074;-86
2023/03/13 11:15:05;;;;;;;4.40;2.13;;;20.20;58.80;;;;;;6244107;23;20449;-86
2023/03/13 11:17:38;;;;;;;4.18;2.13;;;20.20;58.30;;;;;;6244400;23;20065;-86
2023/03/13 11:20:48;;;;;;;5.00;2.50;;;20.30;58.20;;;;;;6217520;23;20069;-86
2023/03/13 11:23:39;;;;;;;3.53;2.25;;;20.50;57.60;;;;;;6237213;23;20023;-86
2023/03/13 11:26:36;;;;;;;4.05;1.67;;;20.70;56.90;;;;;;6244522;23;20095;-86
2023/03/13 11:29:17;;;;;;;4.57;1.60;;;20.80;55.40;;;;;;6214777;23;20012;-85
2023/03/13 11:32:09;;;;;;;2.20;1.45;;;20.80;55.10;;;;;;6244567;23;20031;-86
2023/03/13 11:34:49;;;;;;;1.30;1.00;;;21.00;54.20;;;;;;6244858;23;20046;-87
2023/03/13 11:37:18;;;;;;;2.05;1.05;;;21.20;53.80;;;;;;6246448;23;20007;-86
2023/03/13 11:39:53;;;;;;;2.53;1.20;;;21.40;53.40;;;;;;6246158;23;20353;-86
2023/03/13 11:42:37;;;;;;;2.45;1.20;;;21.60;52.00;;;;;;6246655;23;20011;-86
2023/03/13 11:45:26;;;;;;;2.53;1.25;;;21.80;51.60;;;;;;6247924;23;20040;-86
2023/03/13 11:48:36;;;;;;;2.85;1.10;;;22.20;51.20;;;;;;6247260;23;20020;-86
2023/03/13 11:51:12;;;;;;;2.42;0.90;;;23.00;46.90;;;;;;6246758;23;20004;-86
2023/03/13 11:53:55;;;;;;;2.20;1.00;;;23.70;47.50;;;;;;6246067;23;20000;-86
2023/03/13 11:56:27;;;;;;;2.72;1.02;;;24.20;45.00;;;;;;6245230;23;20004;-85
2023/03/13 11:59:15;;;;;;;3.08;1.30;;;24.20;43.70;;;;;;6244664;23;20008;-85
2023/03/13 12:01:45;;;;;;;1.58;0.90;;;24.00;43.70;;;;;;6240322;23;20023;-87
2023/03/13 12:04:29;;;;;;;;;;;23.70;44.00;;;;;;6245344;23;20075;-86
2023/03/13 12:07:09;;;;;;;3.38;1.00;;;23.40;43.90;;;;;;6218749;23;20249;-86
2023/03/13 12:10:01;;;;;;;1.63;0.77;;;22.90;43.70;;;;;;6217815;23;20426;-87
2023/03/13 12:12:36;;;;;;;2.05;1.00;;;22.60;44.50;;;;;;6245092;23;20075;-86
2023/03/13 12:15:14;;;;;;;0.88;0.75;;;22.30;44.70;;;;;;6246500;23;20001;-86
2023/03/13 12:18:18;;;;;;;3.80;1.60;;;22.00;45.10;;;;;;6246419;23;20012;-87
2023/03/13 12:21:03;;;;;;;3.53;1.75;;;21.70;46.10;;;;;;6200937;23;20008;-86
2023/03/13 12:23:41;;;;;;;3.00;1.75;;;21.40;47.00;;;;;;6217582;23;20012;-85
2023/03/13 12:26:18;;;;;;;2.85;1.85;;;21.20;47.80;;;;;;6245060;23;20000;-85
2023/03/13 12:29:08;;;;;;;2.80;1.70;;;21.00;48.60;;;;;;6244828;23;20033;-86
2023/03/13 12:31:45;;;;;;;4.35;1.52;;;20.80;49.40;;;;;;6243342;23;20105;-85
2023/03/13 12:34:34;;;;;;;2.95;1.90;;;20.60;49.90;;;;;;6242246;23;20004;-85
2023/03/13 12:37:09;;;;;;;2.65;1.85;;;20.60;50.40;;;;;;6243294;23;20045;-86
2023/03/13 12:39:48;;;;;;;3.45;2.03;;;20.60;51.00;;;;;;6216123;23;20740;-85
2023/03/13 12:42:27;;;;;;;4.43;2.03;;;20.80;51.40;;;;;;6216606;23;20280;-87
2023/03/13 12:44:54;;;;;;;5.20;2.45;;;21.10;51.90;;;;;;6243626;23;20731;-81
2023/03/13 12:47:29;;;;;;;5.93;2.20;;;21.50;52.00;;;;;;6243143;23;20000;-86
2023/03/13 12:50:25;;;;;;;4.78;2.47;;;22.10;50.20;;;;;;6244338;23;20423;-86
2023/03/13 12:53:09;;;;;;;4.53;2.55;;;22.60;50.30;;;;;;6243579;23;20004;-86
2023/03/13 12:55:55;;;;;;;8.35;2.30;;;23.20;49.30;;;;;;6243844;23;20008;-82